Time;durP1;ratioP1;P1;durP2;ratioP2;P2;SDS_P1;SDS_P2;PMS_P1;PMS_P2;Temp;Humidity;BMP_temperature;BMP_pressure;BME280_temperature;BME280_humidity;BME280_pressure;Samples;Min_cycle;Max_cycle;Signal;HPM_P1;HPM_P2
2022/02/17 00:01:09;;;;;;;129.07;54.05;;;;;;;5.94;69.68;99777.56;5142593;27;20031;-77
2022/02/17 00:03:35;;;;;;;119.45;52.20;;;;;;;6.16;68.71;99775.72;5142667;27;20046;-77
2022/02/17 00:06:01;;;;;;;118.37;52.70;;;;;;;6.17;67.93;99775.59;5141921;28;20030;-78
2022/02/17 00:08:27;;;;;;;116.30;53.00;;;;;;;5.71;70.05;99763.75;5142700;27;20034;-78
2022/02/17 00:10:52;;;;;;;115.13;55.10;;;;;;;6.04;69.40;99778.44;5142914;28;20085;-78
2022/02/17 00:13:18;;;;;;;125.78;58.10;;;;;;;6.01;69.17;99775.25;5142817;27;20035;-78
2022/02/17 00:15:43;;;;;;;125.88;59.80;;;;;;;5.88;69.83;99761.47;5142732;27;20027;-77
2022/02/17 00:18:21;;;;;;;124.13;56.38;;;;;;;5.65;70.75;99773.94;5141668;27;20034;-77
2022/02/17 00:20:53;;;;;;;117.87;56.50;;;;;;;5.59;71.27;99798.09;5126994;28;20059;-77
2022/02/17 00:23:19;;;;;;;118.78;57.22;;;;;;;5.60;70.64;99778.75;5133774;27;20154;-77
2022/02/17 00:25:45;;;;;;;114.37;58.47;;;;;;;5.62;71.40;99809.19;5141660;27;20035;-77
2022/02/17 00:28:11;;;;;;;115.13;58.83;;;;;;;5.66;71.50;99809.75;5137863;27;20068;-75
2022/02/17 00:30:36;;;;;;;124.27;58.83;;;;;;;5.42;71.73;99781.97;5129024;28;20091;-78
2022/02/17 00:33:02;;;;;;;123.93;58.80;;;;;;;5.50;71.98;99796.25;5127186;28;20110;-78
2022/02/17 00:35:30;;;;;;;117.03;57.73;;;;;;;5.38;71.89;99769.22;5125615;28;20214;-77
2022/02/17 00:37:56;;;;;;;121.13;57.37;;;;;;;5.33;72.39;99771.41;5128147;27;20032;-77
2022/02/17 00:40:21;;;;;;;117.70;54.07;;;;;;;5.50;71.16;99765.56;5130403;27;20027;-77
2022/02/17 00:42:47;;;;;;;110.63;55.03;;;;;;;5.18;72.17;99741.97;5131192;27;20039;-78
2022/02/17 00:45:12;;;;;;;108.47;52.57;;;;;;;5.31;71.71;99740.03;5126685;27;20292;-77
2022/02/17 00:47:38;;;;;;;106.83;52.23;;;;;;;5.31;72.32;99765.44;5126551;27;20039;-78
2022/02/17 00:50:04;;;;;;;107.67;52.70;;;;;;;5.30;71.94;99756.72;5126641;27;20027;-78
2022/02/17 00:52:29;;;;;;;110.83;51.27;;;;;;;5.30;71.64;99756.72;5126123;27;20046;-78
2022/02/17 00:54:55;;;;;;;102.33;49.93;;;;;;;5.10;72.49;99763.59;5125111;27;20024;-78
2022/02/17 00:57:20;;;;;;;103.40;47.60;;;;;;;5.13;72.78;99765.97;5126398;27;20394;-77
2022/02/17 00:59:46;;;;;;;102.10;48.67;;;;;;;5.38;71.44;99761.34;5126559;27;20039;-78
2022/02/17 01:02:11;;;;;;;103.60;48.00;;;;;;;5.21;70.79;99728.63;5126222;28;20031;-78
2022/02/17 01:04:37;;;;;;;94.40;46.83;;;;;;;5.13;71.22;99752.03;5126116;27;20039;-78
2022/02/17 01:07:03;;;;;;;93.95;47.35;;;;;;;5.02;70.73;99715.34;5126142;28;20252;-78
2022/02/17 01:09:28;;;;;;;97.60;45.20;;;;;;;5.36;69.98;99764.09;5126088;27;20087;-77
2022/02/17 01:11:54;;;;;;;90.93;44.77;;;;;;;5.13;69.85;99734.47;5126067;27;20069;-78
2022/02/17 01:14:19;;;;;;;94.13;44.03;;;;;;;5.03;70.33;99746.69;5126101;27;20031;-78
2022/02/17 01:16:45;;;;;;;92.53;42.93;;;;;;;5.33;69.86;99776.66;5125903;27;20032;-78
2022/02/17 01:19:12;;;;;;;88.73;42.77;;;;;;;5.23;68.35;99754.75;5125928;27;20020;-78
2022/02/17 01:21:37;;;;;;;86.60;41.13;;;;;;;5.17;69.41;99768.34;5124606;27;20027;-77
2022/02/17 01:24:03;;;;;;;93.40;44.22;;;;;;;5.01;70.09;99758.28;5125749;27;20147;-77
2022/02/17 01:26:29;;;;;;;83.13;41.27;;;;;;;5.12;69.10;99760.84;5125601;27;20070;-77
2022/02/17 01:28:54;;;;;;;90.83;42.57;;;;;;;5.05;69.15;99760.53;5125913;27;20251;-78
2022/02/17 01:31:20;;;;;;;86.20;42.00;;;;;;;4.68;70.49;99762.72;5125331;27;20046;-77
2022/02/17 01:33:46;;;;;;;87.47;40.43;;;;;;;4.84;70.88;99764.09;5145275;27;20023;-78
2022/02/17 01:36:11;;;;;;;87.72;42.80;;;;;;;4.89;70.40;99757.50;5145242;27;20038;-78
2022/02/17 01:38:39;;;;;;;85.60;41.40;;;;;;;5.16;69.46;99754.41;5142006;27;20034;-77
2022/02/17 01:41:06;;;;;;;94.73;41.17;;;;;;;5.27;68.49;99748.28;5130786;27;20042;-77
2022/02/17 01:43:33;;;;;;;87.90;40.40;;;;;;;5.26;68.35;99749.25;5130108;27;20031;-77
2022/02/17 01:46:00;;;;;;;88.67;41.17;;;;;;;5.09;69.38;99722.56;5124164;27;20020;-78
2022/02/17 01:48:26;;;;;;;92.40;42.27;;;;;;;5.11;68.76;99706.69;5123863;28;20082;-78
2022/02/17 01:50:52;;;;;;;92.27;41.43;;;;;;;5.09;69.63;99727.81;5123249;27;20039;-78
2022/02/17 01:53:18;;;;;;;80.87;37.77;;;;;;;5.23;67.89;99712.75;5129176;27;20046;-77
2022/02/17 01:55:47;;;;;;;95.20;42.37;;;;;;;5.22;66.36;99704.03;5128932;27;20051;-77
2022/02/17 01:58:14;;;;;;;93.97;42.63;;;;;;;5.22;67.95;99729.47;5131825;27;20053;-78
2022/02/17 02:00:40;;;;;;;91.27;41.47;;;;;;;5.18;67.92;99730.66;5124198;27;20329;-77
2022/02/17 02:03:08;;;;;;;128.47;47.17;;;;;;;4.91;68.62;99700.50;5123000;27;20063;-77
2022/02/17 02:05:34;;;;;;;127.87;50.60;;;;;;;4.85;70.37;99729.84;5124718;27;20030;-78
2022/02/17 02:07:59;;;;;;;138.33;51.13;;;;;;;5.04;69.69;99727.38;5126807;27;20031;-78
2022/02/17 02:10:25;;;;;;;109.83;44.83;;;;;;;4.81;70.43;99705.66;5127545;27;20342;-77
2022/02/17 02:12:51;;;;;;;90.03;39.73;;;;;;;4.89;71.05;99726.03;5134693;27;20218;-78
2022/02/17 02:15:17;;;;;;;80.40;37.97;;;;;;;4.78;70.67;99700.66;5127884;27;20027;-78
2022/02/17 02:17:44;;;;;;;77.87;37.13;;;;;;;5.10;70.38;99726.88;5134563;27;20255;-78
2022/02/17 02:20:17;;;;;;;71.23;35.00;;;;;;;5.35;68.58;99725.66;5128286;27;20042;-78
2022/02/17 02:22:42;;;;;;;70.07;35.57;;;;;;;5.05;69.84;99715.91;5132375;27;20020;-78
2022/02/17 02:25:08;;;;;;;77.80;38.07;;;;;;;5.21;69.72;99719.91;5128968;27;20067;-78
2022/02/17 02:27:34;;;;;;;75.07;35.97;;;;;;;5.16;69.78;99720.28;5130678;27;20035;-78
2022/02/17 02:30:00;;;;;;;75.33;37.60;;;;;;;5.25;69.60;99716.91;5123448;27;20027;-78
2022/02/17 02:32:26;;;;;;;89.03;41.27;;;;;;;4.77;71.57;99712.13;5121396;28;20027;-78
2022/02/17 02:34:51;;;;;;;99.27;45.07;;;;;;;4.96;71.30;99715.84;5124281;27;20072;-78
2022/02/17 02:37:17;;;;;;;88.67;41.33;;;;;;;4.99;70.56;99697.22;5132339;27;20039;-77
2022/02/17 02:39:42;;;;;;;81.67;39.53;;;;;;;5.19;70.42;99711.31;5123680;27;20041;-77
2022/02/17 02:42:08;;;;;;;85.10;39.77;;;;;;;5.26;69.86;99702.00;5130198;27;20040;-78
2022/02/17 02:44:34;;;;;;;83.97;41.33;;;;;;;5.18;70.16;99691.28;5123637;27;20026;-78
2022/02/17 02:47:01;;;;;;;84.50;40.73;;;;;;;5.06;70.14;99683.47;5132576;27;20116;-78
2022/02/17 02:49:26;;;;;;;88.63;40.33;;;;;;;5.29;69.40;99712.22;5128462;27;20316;-78
2022/02/17 02:51:52;;;;;;;96.23;43.37;;;;;;;5.16;69.90;99703.69;5131055;27;20094;-77
2022/02/17 02:54:17;;;;;;;92.73;45.83;;;;;;;5.37;68.63;99696.66;5125200;27;20099;-78
2022/02/17 02:56:43;;;;;;;95.17;45.03;;;;;;;5.43;68.73;99706.66;5122786;28;20038;-77
2022/02/17 02:59:09;;;;;;;93.22;44.17;;;;;;;5.22;69.65;99682.22;5121102;28;20252;-77
2022/02/17 03:01:35;;;;;;;115.72;55.25;;;;;;;4.85;71.77;99694.91;5128459;27;20117;-77
2022/02/17 03:04:01;;;;;;;101.17;48.73;;;;;;;4.71;72.49;99698.69;5128234;27;20031;-77
2022/02/17 03:06:30;;;;;;;101.45;49.63;;;;;;;5.10;70.66;99689.28;5124304;27;20347;-78
2022/02/17 03:08:57;;;;;;;104.20;49.43;;;;;;;4.99;71.31;99692.81;5125701;27;20040;-78
2022/02/17 03:11:23;;;;;;;106.60;50.47;;;;;;;4.81;71.65;99692.53;5131298;27;20023;-78
2022/02/17 03:13:49;;;;;;;112.77;53.10;;;;;;;4.65;72.69;99697.38;5126784;27;20320;-78
2022/02/17 03:16:14;;;;;;;93.80;47.57;;;;;;;4.28;73.55;99685.59;5125554;27;20058;-78
2022/02/17 03:18:40;;;;;;;97.30;48.33;;;;;;;4.23;73.66;99699.06;5127105;27;20301;-78
2022/02/17 03:21:05;;;;;;;98.30;45.50;;;;;;;3.89;75.07;99697.44;5122929;27;20311;-78
2022/02/17 03:23:32;;;;;;;91.43;43.83;;;;;;;3.63;75.09;99671.50;5124539;27;20062;-78
2022/02/17 03:25:58;;;;;;;88.53;41.33;;;;;;;3.89;74.24;99695.66;5125994;27;20439;-78
2022/02/17 03:28:24;;;;;;;85.03;40.97;;;;;;;4.03;73.75;99700.63;5126017;27;20101;-78
2022/02/17 03:30:49;;;;;;;86.73;40.33;;;;;;;3.70;74.12;99700.66;5130219;27;20039;-78
2022/02/17 03:33:15;;;;;;;80.17;38.40;;;;;;;3.97;73.51;99702.91;5124893;27;20043;-78
2022/02/17 03:35:40;;;;;;;89.43;37.20;;;;;;;4.14;71.85;99691.91;5127337;28;20084;-77
2022/02/17 03:38:06;;;;;;;87.33;41.67;;;;;;;4.26;70.54;99684.91;5128952;27;20372;-75
2022/02/17 03:40:32;;;;;;;121.17;46.20;;;;;;;4.45;69.83;99703.41;5122780;27;20088;-77
2022/02/17 03:42:57;;;;;;;92.23;40.80;;;;;;;4.51;69.63;99696.84;5127943;27;20027;-77
2022/02/17 03:45:23;;;;;;;114.27;45.47;;;;;;;4.62;68.94;99687.16;5121386;28;20034;-77
2022/02/17 03:47:48;;;;;;;102.40;43.33;;;;;;;4.42;69.68;99695.81;5119713;28;20326;-77
2022/02/17 03:50:14;;;;;;;101.57;41.57;;;;;;;4.60;68.98;99693.47;5125929;28;20039;-77
2022/02/17 03:52:41;;;;;;;91.97;41.07;;;;;;;4.63;68.58;99687.97;5120954;28;20047;-78
2022/02/17 03:55:08;;;;;;;72.73;36.07;;;;;;;4.61;68.41;99688.09;5124194;28;20318;-78
2022/02/17 03:57:34;;;;;;;74.90;36.00;;;;;;;4.46;69.40;99679.69;5125163;28;20020;-77
2022/02/17 03:59:59;;;;;;;71.23;34.53;;;;;;;4.23;70.19;99657.13;5128378;27;20027;-78
2022/02/17 04:02:25;;;;;;;67.37;34.17;;;;;;;4.56;68.86;99674.53;5122961;28;20355;-77
2022/02/17 04:04:50;;;;;;;79.27;37.27;;;;;;;4.50;68.64;99682.91;5121237;28;20080;-77
2022/02/17 04:07:16;;;;;;;81.00;37.10;;;;;;;4.48;68.52;99662.06;5120634;28;20046;-78
2022/02/17 04:09:42;;;;;;;79.30;37.90;;;;;;;4.46;68.84;99698.06;5126908;28;20038;-77
2022/02/17 04:12:08;;;;;;;83.43;40.63;;;;;;;4.20;69.97;99696.69;5124916;28;20035;-78
2022/02/17 04:14:33;;;;;;;82.43;39.80;;;;;;;4.23;70.09;99699.06;5144764;27;20054;-77
2022/02/17 04:16:59;;;;;;;88.70;39.87;;;;;;;3.90;70.32;99676.34;5145944;27;20019;-77
2022/02/17 04:19:26;;;;;;;78.63;39.03;;;;;;;4.06;70.00;99686.44;5132309;27;20178;-78
2022/02/17 04:21:52;;;;;;;84.20;41.27;;;;;;;4.11;69.16;99664.16;5125641;28;20072;-78
2022/02/17 04:24:18;;;;;;;86.20;40.57;;;;;;;4.29;69.00;99695.97;5129894;27;20029;-76
2022/02/17 04:26:43;;;;;;;85.43;41.57;;;;;;;4.30;68.67;99686.31;5133056;27;20042;-77
2022/02/17 04:29:09;;;;;;;95.07;43.83;;;;;;;4.09;70.09;99696.69;5145870;27;20035;-78
2022/02/17 04:31:34;;;;;;;82.90;42.03;;;;;;;3.88;71.29;99666.97;5124964;28;20043;-77
2022/02/17 04:33:59;;;;;;;88.30;40.27;;;;;;;3.92;71.42;99681.47;5125596;27;20224;-78
2022/02/17 04:36:25;;;;;;;85.17;40.80;;;;;;;3.85;71.95;99683.75;5124130;28;20028;-78
2022/02/17 04:38:51;;;;;;;83.67;37.73;;;;;;;3.90;71.28;99676.34;5127848;27;20035;-78
2022/02/17 04:44:00;;;;;;;87.05;38.38;;;;;;;3.92;70.58;99668.38;5132035;27;20294;-77
2022/02/17 04:46:26;;;;;;;77.37;37.23;;;;;;;3.73;70.47;99640.19;5125833;27;20069;-77
2022/02/17 04:48:52;;;;;;;77.60;36.27;;;;;;;3.90;70.37;99667.66;5134577;27;20221;-77
2022/02/17 04:51:18;;;;;;;71.37;34.80;;;;;;;3.65;71.01;99653.06;5128932;27;20356;-77
2022/02/17 04:53:43;;;;;;;71.93;34.87;;;;;;;3.60;71.86;99644.72;5128308;27;20110;-78
2022/02/17 04:56:09;;;;;;;67.47;34.47;;;;;;;3.92;70.55;99650.88;5129722;27;20088;-78
2022/02/17 04:58:35;;;;;;;74.87;33.60;;;;;;;4.00;70.20;99647.66;5125767;27;20023;-78
2022/02/17 05:01:01;;;;;;;69.27;34.77;;;;;;;4.07;69.46;99652.28;5131928;27;20083;-77
2022/02/17 05:03:26;;;;;;;74.57;35.10;;;;;;;3.83;70.24;99634.09;5129142;27;20319;-77
2022/02/17 05:05:53;;;;;;;76.00;36.80;;;;;;;3.84;69.96;99624.47;5125922;27;20024;-77
2022/02/17 05:08:20;;;;;;;71.70;36.50;;;;;;;3.84;69.60;99620.06;5132227;27;20047;-77
2022/02/17 05:10:49;;;;;;;87.00;38.83;;;;;;;4.08;70.17;99645.25;5125768;27;20254;-77
2022/02/17 05:13:15;;;;;;;89.33;39.77;;;;;;;4.07;69.55;99643.56;5128437;27;20042;-78
2022/02/17 05:15:41;;;;;;;86.47;41.87;;;;;;;3.95;70.45;99644.56;5130351;27;20107;-77
2022/02/17 05:18:07;;;;;;;90.17;43.97;;;;;;;3.98;70.25;99641.69;5128348;27;20073;-77
2022/02/17 05:20:33;;;;;;;84.10;41.40;;;;;;;3.94;70.07;99628.00;5132765;27;20031;-77
2022/02/17 05:22:59;;;;;;;95.07;42.17;;;;;;;3.99;69.25;99628.47;5129106;27;20039;-77
2022/02/17 05:25:25;;;;;;;93.73;44.20;;;;;;;3.98;70.70;99647.75;5129738;27;20055;-78
2022/02/17 05:27:50;;;;;;;105.77;49.93;;;;;;;3.96;70.33;99647.06;5133065;27;20035;-77
2022/02/17 05:30:16;;;;;;;96.47;45.97;;;;;;;3.87;71.09;99646.97;5144797;27;20051;-77
2022/02/17 05:32:43;;;;;;;74.30;37.83;;;;;;;3.62;71.89;99634.97;5136406;27;20088;-77
2022/02/17 05:35:10;;;;;;;86.23;40.67;;;;;;;3.92;71.23;99644.81;5123657;28;20026;-77
2022/02/17 05:37:37;;;;;;;109.00;47.47;;;;;;;4.03;70.50;99639.53;5125929;27;20016;-77
2022/02/17 05:40:05;;;;;;;85.90;43.00;;;;;;;3.95;70.58;99639.31;5132860;27;20058;-77
2022/02/17 05:42:31;;;;;;;87.93;45.43;;;;;;;3.94;71.28;99656.81;5127303;27;20328;-77
2022/02/17 05:44:57;;;;;;;95.90;45.57;;;;;;;4.18;70.02;99640.97;5125190;27;20024;-77
2022/02/17 05:47:22;;;;;;;99.57;46.27;;;;;;;4.16;70.24;99648.94;5125367;27;20042;-77
2022/02/17 05:49:48;;;;;;;96.13;46.60;;;;;;;4.14;71.09;99644.75;5125362;27;20387;-77
2022/02/17 05:52:13;;;;;;;94.20;46.07;;;;;;;4.33;69.57;99634.47;5124926;27;20077;-77
2022/02/17 05:54:39;;;;;;;90.73;45.07;;;;;;;4.38;69.73;99634.94;5125439;27;20091;-77
2022/02/17 05:57:05;;;;;;;88.83;43.77;;;;;;;4.28;70.20;99633.19;5125319;27;20074;-77
2022/02/17 05:59:30;;;;;;;99.37;44.57;;;;;;;4.52;69.52;99618.06;5124795;28;20038;-77
2022/02/17 06:01:56;;;;;;;92.23;42.77;;;;;;;4.54;69.71;99625.81;5125127;27;20336;-78
2022/02/17 06:04:21;;;;;;;87.20;41.20;;;;;;;4.56;69.73;99618.63;5125025;27;20038;-78
2022/02/17 06:06:47;;;;;;;91.20;43.13;;;;;;;4.70;69.52;99613.06;5123449;27;20032;-78
2022/02/17 06:09:13;;;;;;;95.37;43.50;;;;;;;4.74;68.59;99602.19;5130280;27;20237;-78
2022/02/17 06:11:38;;;;;;;85.23;41.87;;;;;;;4.94;68.27;99613.66;5124821;27;20043;-78
2022/02/17 06:14:04;;;;;;;85.97;40.73;;;;;;;4.83;68.83;99608.47;5124909;27;20078;-78
2022/02/17 06:16:29;;;;;;;105.70;47.47;;;;;;;4.90;68.66;99612.25;5125137;28;20063;-78
2022/02/17 06:18:55;;;;;;;113.38;46.60;;;;;;;4.90;69.51;99620.09;5125080;27;20192;-77
2022/02/17 06:21:20;;;;;;;100.60;44.83;;;;;;;4.62;70.37;99613.72;5124483;27;20036;-77
2022/02/17 06:23:46;;;;;;;99.80;45.40;;;;;;;4.32;72.12;99603.13;5124770;27;20028;-77
2022/02/17 06:26:11;;;;;;;79.70;38.60;;;;;;;4.45;71.22;99615.13;5124385;27;20103;-78
2022/02/17 06:28:37;;;;;;;83.93;38.80;;;;;;;4.39;71.66;99614.78;5124606;27;20042;-77
2022/02/17 06:31:03;;;;;;;91.22;42.65;;;;;;;4.92;70.57;99614.72;5123053;27;20042;-77
2022/02/17 06:33:29;;;;;;;79.63;38.10;;;;;;;5.01;69.70;99590.34;5124301;27;20039;-78
2022/02/17 06:35:55;;;;;;;72.65;36.70;;;;;;;5.43;68.45;99586.69;5124465;27;20031;-78
2022/02/17 06:38:21;;;;;;;80.82;38.22;;;;;;;5.53;68.94;99609.53;5123204;27;20024;-78
2022/02/17 06:40:46;;;;;;;81.50;35.42;;;;;;;5.88;67.24;99609.88;5123021;27;20056;-78
2022/02/17 06:43:13;;;;;;;78.07;36.08;;;;;;;5.78;67.09;99614.28;5123168;27;20020;-78
2022/02/17 06:45:40;;;;;;;73.13;35.30;;;;;;;5.38;68.55;99604.63;5124415;27;20024;-78
2022/02/17 06:48:07;;;;;;;75.18;37.80;;;;;;;5.18;69.40;99610.72;5123059;27;20343;-78
2022/02/17 06:50:34;;;;;;;86.22;40.22;;;;;;;5.07;70.72;99595.06;5124261;28;20028;-78
2022/02/17 06:53:01;;;;;;;81.13;37.28;;;;;;;5.27;70.44;99602.09;5122831;28;20130;-78
2022/02/17 06:55:26;;;;;;;75.60;34.60;;;;;;;5.64;69.99;99596.28;5124408;28;20035;-78
2022/02/17 06:57:52;;;;;;;69.28;35.53;;;;;;;5.37;70.68;99586.38;5124166;27;20256;-78
2022/02/17 07:00:18;;;;;;;70.95;33.20;;;;;;;5.23;71.21;99571.81;5123459;27;20034;-78
2022/02/17 07:02:52;;;;;;;70.93;33.63;;;;;;;5.66;70.45;99563.66;5130353;27;20035;-77
2022/02/17 07:05:19;;;;;;;67.47;31.85;;;;;;;6.34;68.37;99596.16;5130116;27;20031;-78
2022/02/17 07:07:46;;;;;;;60.58;31.02;;;;;;;6.64;67.69;99583.81;5129223;27;20023;-78
2022/02/17 07:10:11;;;;;;;71.65;31.73;;;;;;;6.89;66.90;99598.16;5125140;27;20040;-78
2022/02/17 07:12:37;;;;;;;74.32;32.60;;;;;;;6.78;67.70;99582.53;5131341;27;20031;-78
2022/02/17 07:15:03;;;;;;;73.72;33.50;;;;;;;6.82;68.10;99582.13;5126975;27;20089;-78
2022/02/17 07:17:29;;;;;;;70.63;35.22;;;;;;;6.99;67.62;99583.19;5131368;27;20023;-78
2022/02/17 07:19:54;;;;;;;77.32;34.15;;;;;;;6.80;68.20;99565.63;5128641;27;20035;-78
2022/02/17 07:22:20;;;;;;;68.18;32.80;;;;;;;7.06;68.18;99579.00;5124656;27;20036;-78
2022/02/17 07:24:46;;;;;;;66.95;32.78;;;;;;;7.31;67.85;99582.81;5130891;27;20023;-77
2022/02/17 07:27:12;;;;;;;66.47;33.55;;;;;;;7.21;68.25;99592.53;5138726;27;20039;-77
2022/02/17 07:29:37;;;;;;;80.90;36.72;;;;;;;7.54;68.03;99601.72;5132716;27;20031;-77
2022/02/17 07:32:08;;;;;;;65.88;34.90;;;;;;;7.85;67.96;99594.31;5135160;27;20093;-78
2022/02/17 07:34:34;;;;;;;71.00;35.00;;;;;;;7.91;67.35;99577.91;5133329;27;20029;-78
2022/02/17 07:36:59;;;;;;;64.43;31.27;;;;;;;7.75;67.86;99599.66;5136527;27;20035;-78
2022/02/17 07:39:25;;;;;;;63.85;33.22;;;;;;;7.67;68.60;99610.09;5134334;27;20040;-78
2022/02/17 07:41:51;;;;;;;67.70;33.03;;;;;;;7.37;69.96;99603.31;5136610;27;20035;-78
2022/02/17 07:44:16;;;;;;;69.10;34.40;;;;;;;7.34;70.86;99593.06;5138137;27;20097;-78
2022/02/17 07:46:42;;;;;;;75.72;36.45;;;;;;;7.52;70.80;99607.13;5141371;27;20102;-78
2022/02/17 07:49:08;;;;;;;74.20;34.22;;;;;;;7.53;70.65;99592.97;5139238;28;20019;-78
2022/02/17 07:51:34;;;;;;;75.82;35.50;;;;;;;7.57;71.72;99606.69;5139592;28;20333;-78
2022/02/17 07:54:00;;;;;;;80.47;39.15;;;;;;;7.73;72.04;99611.31;5141196;27;20076;-78
2022/02/17 07:56:26;;;;;;;71.97;36.17;;;;;;;7.70;71.86;99609.81;5139809;27;20297;-78
2022/02/17 07:58:52;;;;;;;75.30;38.28;;;;;;;7.77;73.10;99615.31;5140677;27;20064;-78
2022/02/17 08:01:18;;;;;;;84.93;40.15;;;;;;;7.89;72.89;99622.06;5138190;28;20054;-78
2022/02/17 08:03:44;;;;;;;82.35;39.50;;;;;;;8.12;72.75;99604.81;5139822;27;20027;-77
2022/02/17 08:06:11;;;;;;;82.65;38.00;;;;;;;8.04;73.80;99617.09;5140186;27;20023;-78
2022/02/17 08:08:36;;;;;;;79.97;39.92;;;;;;;8.17;74.48;99621.03;5139354;27;20224;-77
2022/02/17 08:11:03;;;;;;;83.20;39.83;;;;;;;8.35;73.74;99599.16;5139932;27;20043;-77
2022/02/17 08:13:28;;;;;;;87.63;40.40;;;;;;;8.40;73.67;99604.81;5139584;27;20322;-78
2022/02/17 08:15:55;;;;;;;80.07;39.28;;;;;;;8.89;71.94;99604.22;5141560;28;20080;-77
2022/02/17 08:18:22;;;;;;;84.88;39.08;;;;;;;8.72;72.38;99598.97;5140814;27;20051;-77
2022/02/17 08:20:48;;;;;;;87.20;38.70;;;;;;;8.59;74.45;99602.00;5141257;27;20373;-77
2022/02/17 08:23:13;;;;;;;90.88;40.05;;;;;;;8.23;75.97;99570.31;5141055;27;20023;-77
2022/02/17 08:25:40;;;;;;;90.38;40.45;;;;;;;8.29;76.60;99576.78;5140320;27;20148;-78
2022/02/17 08:28:05;;;;;;;87.53;39.63;;;;;;;8.91;75.16;99599.59;5139775;27;20034;-78
2022/02/17 08:30:35;;;;;;;79.05;38.70;;;;;;;9.40;73.69;99602.56;5140561;28;20094;-78
2022/02/17 08:33:01;;;;;;;81.88;39.33;;;;;;;9.61;72.48;99588.94;5138789;28;20031;-78
2022/02/17 08:35:28;;;;;;;79.45;39.97;;;;;;;10.02;70.14;99574.00;5139788;27;20224;-78
2022/02/17 08:37:56;;;;;;;71.53;36.35;;;;;;;10.05;68.73;99576.34;5140415;27;20026;-78
2022/02/17 08:40:23;;;;;;;72.18;35.67;;;;;;;10.36;67.94;99578.38;5139481;27;20027;-78
2022/02/17 08:42:49;;;;;;;70.30;36.65;;;;;;;10.47;67.73;99560.38;5140962;27;20042;-78
2022/02/17 08:45:14;;;;;;;70.43;36.08;;;;;;;10.26;68.28;99541.50;5139203;27;20134;-78
2022/02/17 08:47:40;;;;;;;75.20;38.22;;;;;;;10.23;67.91;99563.81;5140865;28;20047;-77
2022/02/17 08:50:08;;;;;;;80.05;39.22;;;;;;;10.70;66.19;99541.16;5139729;27;20038;-78
2022/02/17 08:52:35;;;;;;;76.15;38.45;;;;;;;10.89;64.85;99554.03;5140508;27;20062;-78
2022/02/17 08:55:01;;;;;;;75.38;38.42;;;;;;;10.93;63.58;99551.88;5138568;28;20035;-78
2022/02/17 08:57:26;;;;;;;79.40;42.70;;;;;;;11.08;62.83;99556.31;5140359;27;20080;-78
2022/02/17 08:59:52;;;;;;;72.28;38.45;;;;;;;11.30;61.88;99551.28;5142149;27;20035;-78
2022/02/17 09:02:17;;;;;;;73.10;39.60;;;;;;;11.43;61.35;99548.91;5144291;27;20031;-77
2022/02/17 09:04:43;;;;;;;70.13;36.97;;;;;;;11.47;59.77;99524.56;5142958;27;20035;-77
2022/02/17 09:07:08;;;;;;;73.68;37.45;;;;;;;11.57;59.43;99526.19;5144053;27;20031;-78
2022/02/17 09:09:34;;;;;;;61.13;35.53;;;;;;;11.52;59.46;99511.63;5141754;27;20053;-78
2022/02/17 09:11:59;;;;;;;65.40;37.17;;;;;;;11.83;58.35;99518.75;5142797;27;20321;-79
2022/02/17 09:14:25;;;;;;;73.07;36.83;;;;;;;11.82;58.49;99519.75;5144182;27;20026;-77
2022/02/17 09:16:53;;;;;;;72.78;38.88;;;;;;;12.02;58.01;99530.75;5143019;27;20035;-78
2022/02/17 09:19:18;;;;;;;72.82;39.72;;;;;;;12.20;57.17;99528.63;5144622;27;20095;-78
2022/02/17 09:21:44;;;;;;;73.97;39.05;;;;;;;12.25;56.85;99517.47;5140771;27;20229;-78
2022/02/17 09:24:09;;;;;;;74.45;40.60;;;;;;;12.22;56.96;99515.16;5142755;27;20019;-78
2022/02/17 09:26:36;;;;;;;77.95;39.47;;;;;;;12.36;57.04;99515.22;5141053;27;20027;-78
2022/02/17 09:29:03;;;;;;;74.25;40.05;;;;;;;12.46;56.03;99483.91;5143556;27;20459;-78
2022/02/17 09:31:28;;;;;;;82.30;44.13;;;;;;;12.75;55.85;99501.75;5142429;27;20055;-78
2022/02/17 09:33:54;;;;;;;77.97;42.10;;;;;;;12.50;56.33;99471.13;5142368;27;20038;-78
2022/02/17 09:36:27;;;;;;;82.88;44.58;;;;;;;12.69;55.43;99469.78;5141998;27;20019;-78
2022/02/17 09:38:54;;;;;;;84.95;44.13;;;;;;;12.61;55.80;99489.28;5142609;27;20268;-78
2022/02/17 09:41:21;;;;;;;79.53;42.67;;;;;;;12.58;56.72;99483.50;5142190;27;20031;-78
2022/02/17 09:43:49;;;;;;;84.53;44.30;;;;;;;12.65;56.41;99482.59;5142136;27;20027;-78
2022/02/17 09:46:20;;;;;;;83.07;43.63;;;;;;;12.54;56.61;99469.78;5142512;27;20075;-78
2022/02/17 09:48:55;;;;;;;77.22;43.10;;;;;;;12.66;56.28;99467.50;5142446;27;20255;-78
2022/02/17 09:51:24;;;;;;;78.97;42.80;;;;;;;12.44;54.99;99437.31;5142882;27;20119;-78
2022/02/17 09:53:50;;;;;;;85.80;46.03;;;;;;;12.38;55.61;99444.16;5142011;27;20025;-78
2022/02/17 09:56:17;;;;;;;84.28;44.25;;;;;;;12.55;55.57;99434.25;5142023;27;20035;-78
2022/02/17 09:58:42;;;;;;;84.65;44.85;;;;;;;12.77;55.79;99432.50;5142949;27;20317;-79
2022/02/17 10:01:07;;;;;;;83.38;42.10;;;;;;;12.45;56.38;99412.41;5141959;27;20171;-78
2022/02/17 10:03:36;;;;;;;78.30;41.28;;;;;;;12.51;56.83;99422.31;5142887;27;20128;-78
2022/02/17 10:06:12;;;;;;;77.03;42.17;;;;;;;12.63;56.41;99425.34;5142197;27;20033;-77
2022/02/17 10:08:38;;;;;;;77.20;41.38;;;;;;;12.66;56.04;99401.09;5141660;27;20019;-77
2022/02/17 10:11:06;;;;;;;72.43;39.65;;;;;;;12.69;56.14;99400.72;5141636;27;20031;-78
2022/02/17 10:13:33;;;;;;;72.03;39.75;;;;;;;12.33;57.53;99371.38;5141661;27;20027;-78
2022/02/17 10:15:58;;;;;;;70.88;37.33;;;;;;;12.87;56.42;99390.53;5142399;27;20019;-78
2022/02/17 10:18:30;;;;;;;68.15;38.63;;;;;;;12.57;56.72;99371.13;5141602;27;20329;-78
2022/02/17 10:21:06;;;;;;;70.40;38.03;;;;;;;12.36;58.75;99355.91;5140731;27;20303;-79
2022/02/17 10:23:51;;;;;;;73.15;37.13;;;;;;;12.25;58.39;99352.88;5141556;27;20027;-78
2022/02/17 10:26:20;;;;;;;;;;;;;;;12.12;59.53;99337.59;5141168;27;20052;-78
2022/02/17 10:28:59;;;;;;;75.90;36.95;;;;;;;12.25;59.58;99335.13;5142138;27;20168;-78
2022/02/17 10:31:29;;;;;;;68.63;37.30;;;;;;;12.08;59.14;99307.09;5140726;27;20037;-78
2022/02/17 10:33:57;;;;;;;78.78;37.72;;;;;;;12.30;58.68;99322.13;5140848;27;20034;-78
2022/02/17 10:36:38;;;;;;;72.00;37.67;;;;;;;12.26;59.14;99318.19;5141705;27;20253;-78
2022/02/17 10:39:22;;;;;;;71.97;37.88;;;;;;;12.45;58.55;99300.88;5139847;27;20027;-77
2022/02/17 10:41:47;;;;;;;68.18;38.10;;;;;;;12.36;58.51;99305.47;5139678;27;20034;-78
2022/02/17 10:44:15;;;;;;;74.05;37.30;;;;;;;12.52;57.49;99295.69;5143288;27;20046;-78
2022/02/17 10:46:41;;;;;;;68.97;36.90;;;;;;;12.50;57.83;99295.03;5140671;27;20322;-78
2022/02/17 10:49:12;;;;;;;76.63;40.22;;;;;;;12.44;57.08;99285.94;5142029;27;20042;-77
2022/02/17 10:51:37;;;;;;;84.00;40.75;;;;;;;12.40;57.14;99261.59;5141144;27;20027;-78
2022/02/17 10:54:03;;;;;;;71.60;38.08;;;;;;;12.62;56.46;99278.44;5141721;27;20046;-77
2022/02/17 10:56:32;;;;;;;71.75;38.63;;;;;;;12.59;56.39;99272.69;5141239;27;20039;-77
2022/02/17 11:00:00;;;;;;;77.70;35.92;;;;;;;12.47;56.85;99278.44;5140837;27;20079;-78
2022/02/17 11:01:55;;;;;;;65.72;35.58;;;;;;;12.33;57.07;99258.03;5142571;27;20106;-78
2022/02/17 11:04:22;;;;;;;67.03;35.70;;;;;;;12.70;56.18;99261.56;5139429;27;20050;-78
2022/02/17 11:06:48;;;;;;;68.32;35.15;;;;;;;12.66;55.81;99234.56;5142058;27;20035;-78
2022/02/17 11:09:13;;;;;;;59.58;31.90;;;;;;;12.67;56.11;99248.66;5140557;27;20038;-78
2022/02/17 11:11:40;;;;;;;60.13;33.65;;;;;;;12.66;55.95;99225.78;5139164;27;20023;-79
2022/02/17 11:14:05;;;;;;;65.30;32.92;;;;;;;12.96;55.38;99231.81;5141429;27;20035;-78
2022/02/17 11:16:32;;;;;;;87.30;44.63;;;;;;;13.04;55.24;99240.47;5140071;27;20080;-78
2022/02/17 11:18:58;;;;;;;61.58;34.28;;;;;;;13.09;54.65;99238.06;5141872;27;20094;-77
2022/02/17 11:21:25;;;;;;;60.92;33.58;;;;;;;13.37;53.49;99239.97;5139636;27;20249;-77